Time;durP1;ratioP1;P1;durP2;ratioP2;P2;SDS_P1;SDS_P2;PMS_P1;PMS_P2;Temp;Humidity;BMP_temperature;BMP_pressure;BME280_temperature;BME280_humidity;BME280_pressure;Samples;Min_cycle;Max_cycle;Signal;HPM_P1;HPM_P2
2024/01/06 00:00:35;;;;;;;13.77;7.90;;;1.50;99.90;;;;;;5082834;28;20059;-60
2024/01/06 00:03:01;;;;;;;11.63;7.03;;;3.10;99.90;;;;;;5082106;28;20048;-59
2024/01/06 00:05:27;;;;;;;12.80;7.25;;;2.80;99.90;;;;;;5081185;28;20127;-60
2024/01/06 00:07:52;;;;;;;13.30;7.13;;;1.60;99.90;;;;;;5064019;28;20045;-60
2024/01/06 00:10:18;;;;;;;12.63;7.20;;;2.10;99.90;;;;;;5082601;28;20369;-60
2024/01/06 00:12:44;;;;;;;13.73;7.30;;;2.20;99.90;;;;;;5082176;28;20045;-60
2024/01/06 00:15:10;;;;;;;14.75;7.63;;;3.00;99.90;;;;;;5082601;28;20053;-60
2024/01/06 00:17:36;;;;;;;13.07;7.57;;;2.80;99.90;;;;;;5082283;28;20063;-60
2024/01/06 00:20:02;;;;;;;12.73;6.85;;;1.60;99.90;;;;;;5047633;28;20068;-59
2024/01/06 00:22:28;;;;;;;11.27;6.70;;;2.90;99.90;;;;;;5082481;28;20089;-60
2024/01/06 00:24:53;;;;;;;11.23;6.85;;;2.90;99.90;;;;;;5081554;28;20400;-60
2024/01/06 00:27:19;;;;;;;12.63;6.82;;;2.80;99.90;;;;;;5082201;28;20060;-60
2024/01/06 00:29:45;;;;;;;13.35;6.68;;;2.90;99.90;;;;;;5081717;28;20070;-59
2024/01/06 00:32:11;;;;;;;12.10;6.50;;;2.90;99.90;;;;;;5082009;28;20037;-58
2024/01/06 00:34:36;;;;;;;11.93;6.15;;;2.40;99.90;;;;;;5082103;28;20048;-59
2024/01/06 00:37:02;;;;;;;11.88;6.50;;;1.90;99.90;;;;;;5081919;28;20040;-59
2024/01/06 00:39:28;;;;;;;11.60;6.63;;;1.40;99.90;;;;;;5081859;28;20172;-59
2024/01/06 00:41:53;;;;;;;13.48;6.00;;;1.40;99.90;;;;;;5081310;28;20043;-59
2024/01/06 00:44:19;;;;;;;12.77;6.95;;;1.60;99.90;;;;;;5081969;28;20048;-59
2024/01/06 00:46:45;;;;;;;12.10;7.18;;;2.00;99.90;;;;;;5081383;28;20048;-59
2024/01/06 00:49:10;;;;;;;13.27;6.97;;;1.40;99.90;;;;;;5081967;28;20096;-59
2024/01/06 00:51:36;;;;;;;16.42;7.05;;;1.50;99.90;;;;;;5081882;28;20501;-60
2024/01/06 00:54:02;;;;;;;14.88;7.35;;;1.40;99.90;;;;;;5081577;28;20123;-59
2024/01/06 00:56:28;;;;;;;12.57;6.25;;;1.90;99.90;;;;;;5081762;28;20102;-59
2024/01/06 00:58:54;;;;;;;11.93;6.57;;;1.50;99.90;;;;;;5080980;28;20082;-60
2024/01/06 01:01:20;;;;;;;11.13;6.45;;;1.40;99.90;;;;;;5080057;28;20049;-59
2024/01/06 01:03:46;;;;;;;13.50;7.18;;;1.80;99.90;;;;;;5080679;28;20087;-60
2024/01/06 01:06:12;;;;;;;11.75;6.47;;;2.60;99.90;;;;;;5081575;28;20041;-59
2024/01/06 01:08:38;;;;;;;11.85;6.10;;;1.60;99.90;;;;;;5081479;28;20132;-59
2024/01/06 01:11:04;;;;;;;12.50;6.13;;;1.20;99.90;;;;;;5081289;28;20037;-59
2024/01/06 01:13:29;;;;;;;11.77;6.53;;;2.10;99.90;;;;;;5081802;28;20044;-59
2024/01/06 01:15:56;;;;;;;12.15;6.47;;;2.50;99.90;;;;;;5080297;28;20075;-59
2024/01/06 01:18:21;;;;;;;11.68;6.20;;;2.40;99.90;;;;;;5081413;28;20059;-59
2024/01/06 01:20:47;;;;;;;11.43;6.18;;;2.50;99.90;;;;;;5080791;28;20044;-59
2024/01/06 01:23:13;;;;;;;11.57;6.00;;;2.30;99.90;;;;;;5081327;28;20059;-59
2024/01/06 01:25:38;;;;;;;12.77;6.78;;;2.40;99.90;;;;;;5080823;28;20086;-59
2024/01/06 01:28:04;;;;;;;11.25;5.82;;;1.70;99.90;;;;;;5080616;28;20068;-59
2024/01/06 01:30:32;;;;;;;10.55;6.20;;;2.50;99.90;;;;;;5080989;28;20076;-59
2024/01/06 01:32:58;;;;;;;14.20;5.82;;;2.30;99.90;;;;;;5080546;28;20408;-59
2024/01/06 01:35:24;;;;;;;11.70;5.95;;;1.30;99.90;;;;;;5063104;28;20466;-60
2024/01/06 01:37:49;;;;;;;12.15;6.13;;;1.20;99.90;;;;;;5080376;28;20133;-59
2024/01/06 01:40:15;;;;;;;12.98;6.78;;;1.70;99.90;;;;;;5080977;28;20522;-59
2024/01/06 01:42:42;;;;;;;13.85;6.80;;;1.40;99.90;;;;;;5080539;28;20526;-58
2024/01/06 01:45:08;;;;;;;11.32;6.03;;;2.30;99.90;;;;;;5080805;28;20448;-59
2024/01/06 01:47:34;;;;;;;13.00;6.45;;;1.30;99.90;;;;;;5080888;28;20036;-59
2024/01/06 01:50:01;;;;;;;12.00;6.15;;;1.80;99.90;;;;;;5080441;28;20174;-59
2024/01/06 01:52:27;;;;;;;10.63;5.65;;;1.70;99.90;;;;;;5080400;28;20096;-59
2024/01/06 01:54:53;;;;;;;10.95;6.13;;;1.90;99.90;;;;;;5079941;28;20091;-60
2024/01/06 01:57:20;;;;;;;10.82;5.75;;;1.30;99.90;;;;;;5080062;28;20078;-59
2024/01/06 01:59:47;;;;;;;11.05;6.05;;;2.10;99.90;;;;;;5080090;28;20545;-59
2024/01/06 02:02:13;;;;;;;10.95;5.63;;;1.90;99.90;;;;;;5080568;28;20032;-59
2024/01/06 02:04:39;;;;;;;11.23;5.75;;;1.30;99.90;;;;;;5079035;28;20083;-59
2024/01/06 02:07:05;;;;;;;11.35;5.95;;;1.20;99.90;;;;;;5079996;28;20045;-59
2024/01/06 02:09:30;;;;;;;12.57;6.30;;;1.30;99.90;;;;;;5080436;28;20044;-59
2024/01/06 02:11:59;;;;;;;12.00;6.10;;;2.30;99.90;;;;;;5079737;28;20111;-59
2024/01/06 02:14:25;;;;;;;10.90;5.47;;;2.00;99.90;;;;;;5079635;28;20052;-59
2024/01/06 02:16:50;;;;;;;11.45;5.15;;;1.20;99.90;;;;;;5079572;28;20083;-59
2024/01/06 02:19:19;;;;;;;12.77;5.70;;;2.10;99.90;;;;;;5080011;28;20041;-58
2024/01/06 02:21:49;;;;;;;10.90;5.30;;;1.30;99.90;;;;;;5080235;28;20083;-58
2024/01/06 02:24:15;;;;;;;11.43;6.22;;;2.20;99.90;;;;;;5079934;28;20052;-59
2024/01/06 02:26:41;;;;;;;12.00;6.25;;;1.30;99.90;;;;;;5080144;28;20385;-59
2024/01/06 02:29:06;;;;;;;10.18;5.28;;;2.40;99.90;;;;;;5079278;28;20400;-58
2024/01/06 02:31:32;;;;;;;10.75;5.93;;;2.20;99.90;;;;;;5080145;28;20055;-60
2024/01/06 02:33:58;;;;;;;11.70;6.35;;;1.90;99.90;;;;;;5079508;28;20128;-60
2024/01/06 02:36:23;;;;;;;11.52;6.22;;;2.30;99.90;;;;;;5080001;28;20048;-59
2024/01/06 02:38:49;;;;;;;12.45;7.22;;;1.80;99.90;;;;;;5079878;28;20040;-58
2024/01/06 02:41:15;;;;;;;13.30;7.43;;;2.30;99.90;;;;;;5079360;28;20044;-59
2024/01/06 02:43:40;;;;;;;13.45;6.97;;;2.30;99.90;;;;;;5079929;28;20050;-59
2024/01/06 02:46:07;;;;;;;13.90;7.97;;;2.30;99.90;;;;;;5079159;28;20044;-59
2024/01/06 02:48:33;;;;;;;12.82;7.03;;;2.30;99.90;;;;;;5079726;28;20041;-59
2024/01/06 02:50:58;;;;;;;14.50;7.35;;;2.10;99.90;;;;;;5078902;28;20055;-59
2024/01/06 02:53:24;;;;;;;12.75;7.47;;;1.90;99.90;;;;;;5079680;28;20079;-59
2024/01/06 02:55:49;;;;;;;12.20;6.97;;;1.40;99.90;;;;;;5079294;28;20072;-58
2024/01/06 02:58:15;;;;;;;14.30;7.30;;;1.10;99.90;;;;;;5079092;28;20057;-58
2024/01/06 03:00:41;;;;;;;13.25;7.28;;;1.50;99.90;;;;;;5079842;28;20097;-57
2024/01/06 03:03:06;;;;;;;15.55;7.40;;;2.20;99.90;;;;;;5079196;28;20507;-57
2024/01/06 03:05:32;;;;;;;13.68;7.63;;;1.90;99.90;;;;;;5079441;28;20040;-58
2024/01/06 03:07:58;;;;;;;14.43;8.00;;;1.50;99.90;;;;;;5078813;28;20052;-58
2024/01/06 03:10:23;;;;;;;14.45;8.02;;;2.30;99.90;;;;;;5061550;28;20041;-58
2024/01/06 03:12:49;;;;;;;16.45;7.68;;;2.30;99.90;;;;;;5079484;28;20040;-57
2024/01/06 03:15:15;;;;;;;12.32;7.40;;;1.90;99.90;;;;;;5079482;28;20032;-58
2024/01/06 03:17:40;;;;;;;13.73;7.40;;;2.40;99.90;;;;;;5079418;28;20052;-58
2024/01/06 03:20:07;;;;;;;12.85;7.50;;;1.90;99.90;;;;;;5079060;28;20056;-58
2024/01/06 03:22:33;;;;;;;15.57;8.18;;;1.30;99.90;;;;;;5079480;28;20102;-58
2024/01/06 03:24:58;;;;;;;13.45;7.10;;;2.30;99.90;;;;;;5078596;28;20044;-58
2024/01/06 03:27:24;;;;;;;14.20;6.95;;;1.30;99.90;;;;;;5082754;28;20119;-58
2024/01/06 03:29:50;;;;;;;12.98;7.03;;;1.90;99.90;;;;;;5082741;28;20052;-58
2024/01/06 03:32:15;;;;;;;14.25;7.47;;;1.00;99.90;;;;;;5064975;28;20522;-58
2024/01/06 03:34:41;;;;;;;14.15;7.07;;;2.30;99.90;;;;;;5081846;28;20048;-58
2024/01/06 03:37:07;;;;;;;13.25;6.80;;;1.20;99.90;;;;;;5082746;28;20053;-57
2024/01/06 03:39:32;;;;;;;13.73;6.75;;;2.10;99.90;;;;;;5083145;28;20166;-58
2024/01/06 03:41:59;;;;;;;12.10;6.85;;;1.50;99.90;;;;;;5081196;28;20093;-58
2024/01/06 03:44:30;;;;;;;12.30;6.82;;;2.20;99.90;;;;;;5083110;28;20041;-57
2024/01/06 03:46:57;;;;;;;13.27;7.25;;;2.20;99.90;;;;;;5082877;28;20048;-57
2024/01/06 03:49:23;;;;;;;12.52;6.57;;;2.00;99.90;;;;;;5083024;28;20052;-58
2024/01/06 03:51:49;;;;;;;14.98;6.80;;;1.10;99.90;;;;;;5065079;28;20049;-58
2024/01/06 03:54:14;;;;;;;11.93;6.47;;;1.00;99.90;;;;;;5082421;28;20104;-58
2024/01/06 03:56:40;;;;;;;17.58;7.18;;;2.00;99.90;;;;;;5082962;28;20056;-58
2024/01/06 03:59:06;;;;;;;14.10;7.00;;;1.40;99.90;;;;;;5077407;28;20095;-58
2024/01/06 04:01:34;;;;;;;12.30;7.30;;;1.20;99.90;;;;;;5061414;28;20049;-58
2024/01/06 04:04:01;;;;;;;12.80;7.00;;;1.30;99.90;;;;;;5061988;28;20460;-57
2024/01/06 04:06:27;;;;;;;13.82;6.35;;;1.00;99.90;;;;;;5062791;28;20069;-58
2024/01/06 04:08:54;;;;;;;14.10;6.47;;;2.20;99.90;;;;;;5061110;28;20071;-58
2024/01/06 04:11:21;;;;;;;14.70;6.78;;;1.90;99.90;;;;;;5062109;28;20120;-57
2024/01/06 04:13:46;;;;;;;13.77;6.93;;;1.30;99.90;;;;;;5062655;28;20048;-58
2024/01/06 04:16:12;;;;;;;14.15;7.05;;;1.80;99.90;;;;;;5061621;28;20049;-58
2024/01/06 04:18:38;;;;;;;12.77;6.57;;;1.20;99.90;;;;;;5062677;28;20052;-58
2024/01/06 04:21:04;;;;;;;14.57;7.15;;;2.30;99.90;;;;;;5061989;28;20096;-58
2024/01/06 04:23:30;;;;;;;14.50;7.03;;;1.40;99.90;;;;;;5062274;28;20049;-58
2024/01/06 04:25:56;;;;;;;12.50;6.45;;;2.20;99.90;;;;;;5062478;28;20041;-58
2024/01/06 04:28:22;;;;;;;12.73;7.32;;;1.50;99.90;;;;;;5062027;28;20096;-58
2024/01/06 04:30:48;;;;;;;12.10;6.72;;;1.50;99.90;;;;;;5062438;28;20082;-57
2024/01/06 04:33:14;;;;;;;15.07;7.43;;;1.20;99.90;;;;;;5061907;28;20055;-58
2024/01/06 04:35:39;;;;;;;12.23;6.57;;;2.30;99.90;;;;;;5061840;28;20611;-58
2024/01/06 04:38:05;;;;;;;11.20;6.15;;;1.80;99.90;;;;;;5060572;28;20075;-57
2024/01/06 04:40:31;;;;;;;10.52;6.15;;;2.30;99.90;;;;;;5062154;28;20047;-58
2024/01/06 04:42:56;;;;;;;13.20;5.97;;;1.10;99.90;;;;;;5062010;28;20045;-58
2024/01/06 04:45:23;;;;;;;13.45;7.00;;;2.00;99.90;;;;;;5061871;28;20073;-58
2024/01/06 04:47:50;;;;;;;10.30;5.15;;;2.20;99.90;;;;;;5062085;28;20041;-58
2024/01/06 04:50:17;;;;;;;11.18;6.43;;;1.30;99.90;;;;;;5061443;28;20048;-58
2024/01/06 04:52:43;;;;;;;10.23;5.63;;;1.20;99.90;;;;;;5061783;28;20112;-58
2024/01/06 04:55:09;;;;;;;12.27;6.32;;;2.10;99.90;;;;;;5061294;28;20040;-58
2024/01/06 04:57:37;;;;;;;12.40;6.03;;;2.10;99.90;;;;;;5064483;28;20118;-58
2024/01/06 05:00:03;;;;;;;12.07;5.78;;;1.20;99.90;;;;;;5081814;28;20512;-57
2024/01/06 05:02:29;;;;;;;13.00;7.30;;;1.20;99.90;;;;;;5081550;28;20078;-57
2024/01/06 05:04:55;;;;;;;10.77;5.65;;;1.20;99.90;;;;;;5081081;28;20036;-58
2024/01/06 05:07:21;;;;;;;11.50;6.13;;;1.30;99.90;;;;;;5081030;28;20056;-58
2024/01/06 05:09:47;;;;;;;12.10;6.60;;;1.10;99.90;;;;;;5081598;28;20082;-58
2024/01/06 05:12:12;;;;;;;12.65;6.68;;;2.20;99.90;;;;;;5080912;28;20037;-58
2024/01/06 05:14:38;;;;;;;12.38;6.28;;;1.40;99.90;;;;;;5080168;28;20071;-58
2024/01/06 05:17:04;;;;;;;12.18;6.45;;;1.70;99.90;;;;;;5081381;28;20040;-58
2024/01/06 05:19:30;;;;;;;9.77;5.57;;;2.20;99.90;;;;;;5081126;28;20036;-57
2024/01/06 05:21:56;;;;;;;14.93;6.40;;;2.10;99.90;;;;;;5081377;28;20052;-58
2024/01/06 05:24:23;;;;;;;13.85;6.63;;;2.20;99.90;;;;;;5080588;28;20083;-58
2024/01/06 05:26:48;;;;;;;13.30;5.93;;;1.40;99.90;;;;;;5081156;28;20043;-58
2024/01/06 05:29:14;;;;;;;12.20;6.38;;;1.20;99.90;;;;;;5080628;28;20064;-58
2024/01/06 05:31:40;;;;;;;11.23;6.45;;;1.10;99.90;;;;;;5081021;28;20052;-58
2024/01/06 05:34:05;;;;;;;11.18;6.57;;;2.00;99.90;;;;;;5080687;28;20386;-57
2024/01/06 05:36:31;;;;;;;16.10;7.25;;;1.20;99.90;;;;;;5080607;28;20088;-57
2024/01/06 05:38:57;;;;;;;11.70;6.68;;;1.30;99.90;;;;;;5081055;28;20404;-58
2024/01/06 05:41:23;;;;;;;14.35;6.85;;;2.30;99.90;;;;;;5080321;28;20033;-58
2024/01/06 05:43:48;;;;;;;13.40;6.82;;;1.20;99.90;;;;;;5080927;28;20607;-58
2024/01/06 05:46:25;;;;;;;14.00;6.70;;;2.00;99.90;;;;;;5080257;28;20040;-58
2024/01/06 05:48:51;;;;;;;12.10;6.72;;;1.40;99.90;;;;;;5078562;28;20048;-58
2024/01/06 05:51:16;;;;;;;14.10;6.88;;;2.30;99.90;;;;;;5080207;28;20049;-58
2024/01/06 05:53:42;;;;;;;12.65;7.05;;;2.30;99.90;;;;;;5080693;28;20101;-58
2024/01/06 05:56:09;;;;;;;15.38;7.70;;;1.20;99.90;;;;;;5080664;28;20066;-57
2024/01/06 05:58:35;;;;;;;14.93;8.25;;;1.70;99.90;;;;;;5079651;28;20456;-58
2024/01/06 06:01:00;;;;;;;13.52;7.10;;;1.50;99.90;;;;;;5080594;28;20052;-58
2024/01/06 06:03:26;;;;;;;17.77;8.18;;;2.20;99.90;;;;;;5079687;28;20036;-58
2024/01/06 06:05:52;;;;;;;14.98;8.10;;;1.80;99.90;;;;;;5080183;28;20041;-58
2024/01/06 06:08:18;;;;;;;15.10;8.48;;;1.10;99.90;;;;;;5079988;28;20041;-58
2024/01/06 06:11:05;;;;;;;15.85;7.53;;;2.10;99.90;;;;;;5080509;28;20033;-58
2024/01/06 06:13:30;;;;;;;13.93;7.40;;;1.40;99.90;;;;;;5080472;28;20048;-58
2024/01/06 06:15:57;;;;;;;13.80;7.28;;;2.40;99.90;;;;;;5079564;28;20553;-58
2024/01/06 06:18:23;;;;;;;15.20;7.53;;;1.70;99.90;;;;;;5080127;28;20041;-57
2024/01/06 06:20:48;;;;;;;16.02;8.15;;;1.10;99.90;;;;;;5079762;28;20055;-57
2024/01/06 06:23:14;;;;;;;15.90;8.23;;;2.20;99.90;;;;;;5079980;28;20096;-58
2024/01/06 06:25:40;;;;;;;13.70;7.07;;;2.40;99.90;;;;;;5080119;28;20043;-57
2024/01/06 06:28:06;;;;;;;12.40;6.70;;;2.50;99.90;;;;;;5079775;28;20054;-58
2024/01/06 06:30:32;;;;;;;13.18;6.95;;;2.50;99.90;;;;;;5079982;28;20052;-57
2024/01/06 06:32:58;;;;;;;14.00;7.55;;;2.40;99.90;;;;;;5079506;28;20086;-57
2024/01/06 06:35:24;;;;;;;14.30;7.90;;;1.20;99.90;;;;;;5079878;28;20044;-58
2024/01/06 06:37:50;;;;;;;13.48;7.50;;;2.50;99.90;;;;;;5079223;28;20064;-58
2024/01/06 06:40:15;;;;;;;12.98;7.13;;;1.40;99.90;;;;;;5080040;28;20036;-58
2024/01/06 06:42:41;;;;;;;15.63;7.97;;;1.70;99.90;;;;;;5079797;28;20072;-57
2024/01/06 06:45:07;;;;;;;13.93;7.47;;;2.30;99.90;;;;;;5079573;28;20048;-58
2024/01/06 06:47:33;;;;;;;13.70;7.40;;;1.70;99.90;;;;;;5079764;28;20051;-57
2024/01/06 06:49:59;;;;;;;14.60;7.35;;;1.80;99.90;;;;;;5079322;28;20072;-58
2024/01/06 06:52:24;;;;;;;13.20;7.28;;;2.10;99.90;;;;;;5079664;28;20060;-58
2024/01/06 06:54:52;;;;;;;13.82;6.88;;;1.50;99.90;;;;;;5079221;28;20066;-58
2024/01/06 06:57:18;;;;;;;14.63;7.35;;;2.60;99.90;;;;;;5079472;28;20052;-57
2024/01/06 06:59:44;;;;;;;13.60;7.45;;;1.50;99.90;;;;;;5078507;28;20079;-58
2024/01/06 07:02:10;;;;;;;14.48;7.53;;;1.60;99.90;;;;;;5084588;28;20044;-58
2024/01/06 07:04:36;;;;;;;12.13;6.68;;;2.60;99.90;;;;;;5085053;28;20041;-57
2024/01/06 07:07:02;;;;;;;14.63;7.20;;;1.40;99.90;;;;;;5085178;28;20051;-58
2024/01/06 07:09:27;;;;;;;14.55;7.00;;;1.40;99.90;;;;;;5084847;28;20071;-57
2024/01/06 07:11:53;;;;;;;17.45;8.45;;;1.40;99.90;;;;;;5085029;28;20045;-58
2024/01/06 07:14:19;;;;;;;12.35;7.13;;;2.60;99.90;;;;;;5084517;28;20412;-58
2024/01/06 07:16:44;;;;;;;13.20;8.07;;;2.40;99.90;;;;;;5085063;28;20051;-58
2024/01/06 07:19:10;;;;;;;16.70;7.80;;;1.30;99.90;;;;;;5084957;28;20111;-59
2024/01/06 07:21:37;;;;;;;13.25;8.63;;;2.60;99.90;;;;;;5085102;28;20040;-59
2024/01/06 07:24:03;;;;;;;15.32;9.23;;;2.40;99.90;;;;;;5085009;28;20064;-60
2024/01/06 07:26:28;;;;;;;17.30;10.00;;;2.50;99.90;;;;;;5066991;28;20045;-60
2024/01/06 07:28:54;;;;;;;17.88;8.77;;;2.50;99.90;;;;;;5084753;28;20124;-60
2024/01/06 07:31:20;;;;;;;17.83;9.65;;;1.40;99.90;;;;;;5084732;28;20049;-60
2024/01/06 07:33:46;;;;;;;16.73;8.88;;;1.30;99.90;;;;;;5084628;28;20037;-60
2024/01/06 07:36:11;;;;;;;18.77;9.20;;;2.60;99.90;;;;;;5084812;28;20063;-60
2024/01/06 07:38:37;;;;;;;15.77;8.40;;;1.80;99.90;;;;;;5084832;28;20040;-60
2024/01/06 07:41:04;;;;;;;15.85;8.95;;;2.60;99.90;;;;;;5084806;28;20115;-59
2024/01/06 07:43:30;;;;;;;15.68;9.55;;;2.60;99.90;;;;;;5084622;28;20048;-60
2024/01/06 07:45:56;;;;;;;14.15;8.50;;;1.20;99.90;;;;;;5084831;28;20041;-60
2024/01/06 07:48:22;;;;;;;19.73;9.48;;;2.20;99.90;;;;;;5084468;28;20041;-60
2024/01/06 07:50:47;;;;;;;18.63;10.65;;;1.90;99.90;;;;;;5084659;28;20096;-60
2024/01/06 07:53:16;;;;;;;16.27;9.43;;;1.60;99.90;;;;;;5084678;28;20040;-60
2024/01/06 07:55:41;;;;;;;17.73;9.40;;;2.40;99.90;;;;;;5084903;28;20056;-60
2024/01/06 07:58:07;;;;;;;17.73;9.52;;;1.30;99.90;;;;;;5084338;28;20531;-60
2024/01/06 08:00:33;;;;;;;16.20;8.80;;;1.40;99.90;;;;;;5084772;28;20041;-60
2024/01/06 08:02:58;;;;;;;16.40;9.95;;;2.60;99.90;;;;;;5084622;28;20361;-60
2024/01/06 08:05:24;;;;;;;16.98;9.65;;;2.50;99.90;;;;;;5084297;28;20045;-60
2024/01/06 08:07:51;;;;;;;19.70;10.43;;;1.40;99.90;;;;;;5084505;28;20036;-60
2024/01/06 08:10:17;;;;;;;16.23;9.82;;;2.10;99.90;;;;;;5084588;28;20514;-60
2024/01/06 08:12:43;;;;;;;16.30;9.63;;;1.50;99.90;;;;;;5082005;28;20070;-59
2024/01/06 08:15:09;;;;;;;18.48;9.52;;;2.00;99.90;;;;;;5063238;28;20045;-59
2024/01/06 08:17:35;;;;;;;16.70;9.75;;;2.50;99.90;;;;;;5081334;28;20048;-60
2024/01/06 08:20:01;;;;;;;16.77;8.88;;;2.50;99.90;;;;;;5081054;28;20056;-60
2024/01/06 08:22:27;;;;;;;18.48;9.48;;;1.80;99.90;;;;;;5081102;28;20097;-59
2024/01/06 08:24:52;;;;;;;17.30;9.98;;;2.00;99.90;;;;;;5081209;28;20082;-60
2024/01/06 08:27:18;;;;;;;17.15;9.23;;;2.70;99.90;;;;;;5080819;28;20049;-60
2024/01/06 08:29:44;;;;;;;19.30;10.60;;;2.40;99.90;;;;;;5081286;28;20056;-60
2024/01/06 08:32:11;;;;;;;17.48;9.93;;;1.50;99.90;;;;;;5079770;28;20148;-60
2024/01/06 08:34:38;;;;;;;17.02;9.82;;;1.90;99.90;;;;;;5080857;28;20048;-59
2024/01/06 08:37:03;;;;;;;17.60;9.65;;;2.20;99.90;;;;;;5080979;28;20083;-60
2024/01/06 08:39:29;;;;;;;18.13;9.43;;;1.90;99.90;;;;;;5079418;28;20029;-60
2024/01/06 08:41:55;;;;;;;17.48;10.65;;;2.50;99.90;;;;;;5079215;28;20044;-60
2024/01/06 08:44:20;;;;;;;18.95;10.55;;;1.70;99.90;;;;;;5062596;28;20040;-60
2024/01/06 08:46:46;;;;;;;17.92;9.57;;;2.70;99.90;;;;;;5080914;28;20062;-60
2024/01/06 08:49:12;;;;;;;17.40;10.57;;;1.50;99.90;;;;;;5079639;28;20045;-60
2024/01/06 08:51:37;;;;;;;17.40;10.75;;;1.80;99.90;;;;;;5081016;28;20454;-60
2024/01/06 08:54:05;;;;;;;18.38;9.57;;;2.60;99.90;;;;;;5080546;28;20045;-59
2024/01/06 08:56:32;;;;;;;18.42;10.15;;;1.40;99.90;;;;;;5079986;28;20052;-60
2024/01/06 08:58:57;;;;;;;16.80;10.05;;;2.50;99.90;;;;;;5080201;28;20051;-60
2024/01/06 09:01:23;;;;;;;19.65;11.02;;;2.30;99.90;;;;;;5080440;28;20603;-59
2024/01/06 09:03:49;;;;;;;18.40;10.80;;;1.60;99.90;;;;;;5080459;28;20488;-60
2024/01/06 09:06:15;;;;;;;17.65;10.65;;;2.70;99.90;;;;;;5080569;28;20052;-59
2024/01/06 09:08:41;;;;;;;19.60;11.13;;;1.50;99.90;;;;;;5080408;28;20124;-60
2024/01/06 09:11:07;;;;;;;17.92;10.50;;;1.70;99.90;;;;;;5080412;28;20040;-60
2024/01/06 09:13:32;;;;;;;16.90;10.43;;;2.50;99.90;;;;;;5080185;28;20054;-60
2024/01/06 09:16:00;;;;;;;18.67;10.63;;;1.50;99.90;;;;;;5079975;28;20411;-59
2024/01/06 09:18:26;;;;;;;20.35;10.50;;;1.90;99.90;;;;;;5079668;28;20045;-60
2024/01/06 09:20:52;;;;;;;15.75;9.30;;;1.60;99.90;;;;;;5080099;28;20040;-60
2024/01/06 09:23:19;;;;;;;19.90;10.57;;;1.50;99.90;;;;;;5079669;28;20046;-60
2024/01/06 09:25:45;;;;;;;16.75;9.43;;;2.60;99.90;;;;;;5080028;28;20050;-59
2024/01/06 09:28:10;;;;;;;16.45;9.93;;;1.80;99.90;;;;;;5080001;28;20059;-60
2024/01/06 09:30:37;;;;;;;16.20;9.98;;;1.70;99.90;;;;;;5079846;28;20040;-60
2024/01/06 09:33:03;;;;;;;17.33;9.68;;;1.70;99.90;;;;;;5079946;28;20052;-60
2024/01/06 09:35:28;;;;;;;18.55;9.88;;;1.60;99.90;;;;;;5079346;28;20039;-60
2024/01/06 09:37:55;;;;;;;17.02;9.65;;;2.70;99.90;;;;;;5079463;28;20048;-60
2024/01/06 09:40:24;;;;;;;21.75;10.43;;;2.70;99.90;;;;;;5079711;28;20044;-60
2024/01/06 09:42:50;;;;;;;17.80;9.82;;;2.70;99.90;;;;;;5079739;28;20119;-59
2024/01/06 09:45:16;;;;;;;17.48;9.70;;;1.80;99.90;;;;;;5079944;28;20063;-60
2024/01/06 09:47:43;;;;;;;18.05;10.07;;;2.00;99.90;;;;;;5079304;28;20096;-60
2024/01/06 09:50:10;;;;;;;15.82;10.13;;;2.80;99.90;;;;;;5079235;28;20497;-59
2024/01/06 09:52:43;;;;;;;16.75;10.05;;;2.00;99.90;;;;;;5079061;28;20067;-60
2024/01/06 09:55:12;;;;;;;17.17;10.00;;;2.40;99.90;;;;;;5079383;28;20504;-60
2024/01/06 09:57:38;;;;;;;15.93;9.10;;;2.70;99.90;;;;;;5061457;28;20049;-60
2024/01/06 10:00:05;;;;;;;17.92;9.73;;;2.60;99.90;;;;;;5079465;28;20419;-58
2024/01/06 10:02:33;;;;;;;20.42;10.70;;;1.70;99.90;;;;;;5079579;28;20059;-58
2024/01/06 10:04:59;;;;;;;17.60;9.02;;;2.20;99.90;;;;;;5078888;28;20045;-59
2024/01/06 10:07:28;;;;;;;17.20;8.73;;;2.60;99.90;;;;;;5078927;28;20064;-58
2024/01/06 10:09:57;;;;;;;14.30;8.85;;;2.50;99.90;;;;;;5078977;28;20076;-59
2024/01/06 10:12:26;;;;;;;15.45;9.23;;;1.70;99.90;;;;;;5079266;28;20041;-59
2024/01/06 10:14:53;;;;;;;15.68;8.90;;;2.40;99.90;;;;;;5079422;28;20053;-58
2024/01/06 10:17:19;;;;;;;15.23;8.18;;;2.00;99.90;;;;;;5079183;28;20048;-59
2024/01/06 10:19:48;;;;;;;15.75;9.05;;;2.80;99.90;;;;;;5078734;28;20484;-58
2024/01/06 10:22:15;;;;;;;16.75;8.07;;;1.80;99.90;;;;;;5078844;28;20051;-58
2024/01/06 10:24:40;;;;;;;14.32;8.07;;;1.80;99.90;;;;;;5078787;28;20044;-59
2024/01/06 10:27:08;;;;;;;15.68;8.57;;;2.80;99.90;;;;;;5078851;28;20096;-59
2024/01/06 10:29:34;;;;;;;17.05;7.80;;;2.80;99.90;;;;;;5061380;28;20037;-57
2024/01/06 10:32:00;;;;;;;13.82;7.68;;;2.20;99.90;;;;;;5079046;28;20075;-59
2024/01/06 10:34:26;;;;;;;12.43;7.38;;;2.80;99.90;;;;;;5078624;28;20058;-59
2024/01/06 10:36:53;;;;;;;14.50;7.13;;;2.80;99.90;;;;;;5078277;28;20048;-59
2024/01/06 10:39:19;;;;;;;14.07;8.10;;;2.70;99.90;;;;;;5078615;28;20040;-59
2024/01/06 10:41:48;;;;;;;13.30;7.65;;;2.40;99.90;;;;;;5078522;28;20080;-59
2024/01/06 10:44:15;;;;;;;14.60;7.75;;;2.90;99.90;;;;;;5078743;28;20055;-59
2024/01/06 10:46:41;;;;;;;12.57;6.85;;;2.70;99.90;;;;;;5078746;28;20077;-59
2024/01/06 10:49:10;;;;;;;13.20;7.10;;;3.00;99.90;;;;;;5078931;28;20045;-59
2024/01/06 10:51:40;;;;;;;12.25;6.82;;;2.80;99.90;;;;;;5078868;28;20036;-59
2024/01/06 10:54:06;;;;;;;12.57;6.80;;;3.00;99.90;;;;;;5078478;28;20098;-59
2024/01/06 10:56:36;;;;;;;11.35;7.13;;;2.20;99.90;;;;;;5078267;28;20052;-59
2024/01/06 10:59:04;;;;;;;13.43;7.18;;;2.30;99.90;;;;;;5078223;28;20090;-59
2024/01/06 11:01:30;;;;;;;12.02;7.00;;;3.10;99.90;;;;;;5060393;28;20072;-59
2024/01/06 11:03:56;;;;;;;12.98;7.43;;;2.30;99.90;;;;;;5078472;28;20056;-59
2024/01/06 11:06:23;;;;;;;13.18;7.63;;;3.10;99.90;;;;;;5078597;28;20040;-58
2024/01/06 11:09:11;;;;;;;13.00;7.60;;;2.30;99.90;;;;;;5078787;28;20055;-58
2024/01/06 11:11:37;;;;;;;13.77;7.18;;;3.00;99.90;;;;;;5078468;28;20120;-59
2024/01/06 11:14:25;;;;;;;12.65;6.45;;;2.30;99.90;;;;;;5078311;28;20397;-59
2024/01/06 11:16:52;;;;;;;12.88;6.82;;;2.30;99.90;;;;;;5078573;28;20067;-59
2024/01/06 11:19:42;;;;;;;11.60;7.03;;;2.30;99.90;;;;;;5078633;28;20045;-59
2024/01/06 11:22:26;;;;;;;14.02;7.53;;;3.10;99.90;;;;;;5078080;28;20041;-59
2024/01/06 11:24:56;;;;;;;11.63;6.43;;;2.30;99.90;;;;;;5078143;28;20056;-59
2024/01/06 11:27:28;;;;;;;12.20;6.25;;;2.90;99.90;;;;;;5078424;28;20071;-59
2024/01/06 11:29:55;;;;;;;11.20;6.23;;;2.30;99.90;;;;;;5078640;28;20058;-59
2024/01/06 11:32:24;;;;;;;12.68;6.57;;;2.40;99.90;;;;;;5078571;28;20082;-59
2024/01/06 11:34:55;;;;;;;11.00;5.80;;;2.20;99.90;;;;;;5077720;28;20044;-58
2024/01/06 11:37:25;;;;;;;13.40;7.50;;;2.30;99.90;;;;;;5077674;28;20049;-58
2024/01/06 11:39:52;;;;;;;14.52;7.90;;;2.10;99.90;;;;;;5077824;28;20051;-59
2024/01/06 11:42:19;;;;;;;12.40;7.20;;;2.60;99.90;;;;;;5078120;28;20382;-58
2024/01/06 11:44:49;;;;;;;13.32;7.13;;;2.80;99.90;;;;;;5060302;28;20052;-58
2024/01/06 11:47:17;;;;;;;12.73;7.18;;;2.60;99.90;;;;;;5059971;28;20044;-58
2024/01/06 11:49:46;;;;;;;11.07;6.97;;;2.30;99.90;;;;;;5081662;28;20045;-58
2024/01/06 11:52:12;;;;;;;12.80;7.70;;;2.50;99.90;;;;;;5081693;28;20110;-59
2024/01/06 11:54:38;;;;;;;12.90;7.38;;;2.40;99.90;;;;;;5081667;28;20041;-59
2024/01/06 11:57:04;;;;;;;12.82;7.72;;;2.70;99.90;;;;;;5081463;28;20048;-59
2024/01/06 11:59:30;;;;;;;12.95;8.00;;;2.20;99.90;;;;;;5081567;28;20449;-58
2024/01/06 12:01:55;;;;;;;12.48;6.93;;;2.60;99.90;;;;;;5081735;28;20051;-58
2024/01/06 12:04:22;;;;;;;11.35;6.43;;;2.30;99.90;;;;;;5081570;28;20045;-59
2024/01/06 12:06:48;;;;;;;13.15;7.15;;;2.30;99.90;;;;;;5081630;28;20036;-57
2024/01/06 12:09:16;;;;;;;12.45;7.40;;;2.70;99.90;;;;;;5081389;28;20063;-59
2024/01/06 12:11:44;;;;;;;12.32;7.45;;;2.00;99.90;;;;;;5081433;28;20231;-58
2024/01/06 12:14:10;;;;;;;12.68;6.45;;;2.70;99.90;;;;;;5081123;28;20044;-58
2024/01/06 12:16:36;;;;;;;11.88;6.68;;;2.30;99.90;;;;;;5081316;28;20153;-59
2024/01/06 12:19:03;;;;;;;12.02;7.10;;;2.30;99.90;;;;;;5081517;28;20046;-58
2024/01/06 12:21:30;;;;;;;12.68;7.38;;;2.30;99.90;;;;;;5081626;28;20044;-59
2024/01/06 12:24:21;;;;;;;13.48;8.25;;;2.80;99.90;;;;;;5081359;28;20368;-59
2024/01/06 12:26:48;;;;;;;12.40;6.82;;;2.10;99.90;;;;;;5080675;28;20067;-59
2024/01/06 12:29:14;;;;;;;13.38;7.03;;;2.10;99.90;;;;;;5081078;28;20055;-59
2024/01/06 12:31:40;;;;;;;12.55;6.47;;;2.80;99.90;;;;;;5081117;28;20415;-58
2024/01/06 12:34:09;;;;;;;11.07;6.43;;;2.40;99.90;;;;;;5081088;28;20075;-58
2024/01/06 12:36:37;;;;;;;12.48;7.07;;;2.60;99.90;;;;;;5081067;28;20037;-58
2024/01/06 12:39:03;;;;;;;12.15;6.55;;;2.50;99.90;;;;;;5081077;28;20070;-59
2024/01/06 12:41:29;;;;;;;11.65;6.38;;;2.10;99.90;;;;;;5080891;28;20044;-58